createdAt,value
2022-10-14T00:00:45.210Z,99.90
2022-10-14T00:02:37.367Z,99.90
2022-10-14T00:04:09.413Z,99.90
2022-10-14T00:05:42.096Z,99.90
2022-10-14T00:07:14.235Z,99.90
2022-10-14T00:08:47.604Z,99.90
2022-10-14T00:10:19.722Z,99.90
2022-10-14T00:11:51.795Z,99.90
2022-10-14T00:13:23.848Z,99.90
2022-10-14T00:14:56.616Z,99.90
2022-10-14T00:16:32.359Z,99.90
2022-10-14T00:18:04.497Z,99.90
2022-10-14T00:19:37.395Z,99.90
2022-10-14T00:21:09.645Z,99.90
2022-10-14T00:22:41.821Z,99.90
2022-10-14T00:24:16.097Z,99.90
2022-10-14T00:25:48.299Z,99.90
2022-10-14T00:27:20.917Z,99.90
2022-10-14T00:28:53.724Z,99.90
2022-10-14T00:30:25.816Z,99.90
2022-10-14T00:31:57.956Z,99.90
2022-10-14T00:33:30.243Z,99.90
2022-10-14T00:35:02.869Z,99.90
2022-10-14T00:36:35.083Z,99.90
2022-10-14T00:38:07.385Z,99.90
2022-10-14T00:39:39.686Z,99.90
2022-10-14T00:41:18.148Z,99.90
2022-10-14T00:42:50.277Z,99.90
2022-10-14T00:44:25.428Z,99.90
2022-10-14T00:45:57.788Z,99.90
2022-10-14T00:47:30.554Z,99.90
2022-10-14T00:49:18.947Z,99.90
2022-10-14T00:50:55.136Z,99.90
2022-10-14T00:52:28.066Z,99.90
2022-10-14T00:54:00.250Z,99.90
2022-10-14T00:55:33.342Z,99.90
2022-10-14T00:57:06.122Z,99.90
2022-10-14T00:58:38.938Z,99.90
2022-10-14T01:00:19.197Z,99.90
2022-10-14T01:01:51.299Z,99.90
2022-10-14T01:03:23.673Z,99.90
2022-10-14T01:04:56.315Z,99.90
2022-10-14T01:06:42.428Z,99.90
2022-10-14T01:08:31.877Z,99.90
2022-10-14T01:10:31.182Z,99.90
2022-10-14T01:12:28.695Z,99.90
2022-10-14T01:14:07.265Z,99.90
2022-10-14T01:15:42.582Z,99.90
2022-10-14T01:17:30.424Z,99.90
2022-10-14T01:19:13.166Z,99.90
2022-10-14T01:20:52.110Z,99.90
2022-10-14T01:22:35.131Z,99.90
2022-10-14T01:24:12.915Z,99.90
2022-10-14T01:26:09.902Z,99.90
2022-10-14T01:28:13.174Z,99.90
2022-10-14T01:30:18.516Z,99.90
2022-10-14T01:32:00.482Z,99.90
2022-10-14T01:33:38.260Z,99.90
2022-10-14T01:35:19.460Z,99.90
2022-10-14T01:37:02.947Z,99.90
2022-10-14T01:38:39.306Z,99.90
2022-10-14T01:40:22.664Z,99.90
2022-10-14T01:42:08.011Z,99.90
2022-10-14T01:43:43.404Z,99.90
2022-10-14T01:45:20.372Z,99.90
2022-10-14T01:46:56.045Z,99.90
2022-10-14T01:48:37.638Z,99.90
2022-10-14T01:50:15.587Z,99.90
2022-10-14T01:51:52.930Z,99.90
2022-10-14T01:53:38.013Z,99.90
2022-10-14T01:55:16.824Z,99.90
2022-10-14T01:56:50.603Z,99.90
2022-10-14T01:58:26.757Z,99.90
2022-10-14T02:00:00.167Z,99.90
2022-10-14T02:01:32.529Z,99.90
2022-10-14T02:03:04.853Z,99.90
2022-10-14T02:04:37.093Z,99.90
2022-10-14T02:06:16.931Z,99.90
2022-10-14T02:07:56.511Z,99.90
2022-10-14T02:09:58.369Z,99.90
2022-10-14T02:11:41.122Z,99.90
2022-10-14T02:13:28.864Z,99.90
2022-10-14T02:15:15.702Z,99.90
2022-10-14T02:17:27.668Z,99.90
2022-10-14T02:19:20.139Z,99.90
2022-10-14T02:20:59.510Z,99.90
2022-10-14T02:22:37.530Z,99.90
2022-10-14T02:24:18.915Z,99.90
2022-10-14T02:25:52.255Z,99.90
2022-10-14T02:27:26.536Z,99.90
2022-10-14T02:29:01.827Z,99.90
2022-10-14T02:30:40.444Z,99.90
2022-10-14T02:32:15.037Z,99.90
2022-10-14T02:33:53.588Z,99.90
2022-10-14T02:35:26.538Z,99.90
2022-10-14T02:37:00.934Z,99.90
2022-10-14T02:38:33.993Z,99.90
2022-10-14T02:40:13.998Z,99.90
2022-10-14T02:41:46.683Z,99.90
2022-10-14T02:43:19.059Z,99.90
2022-10-14T02:45:01.193Z,99.90
2022-10-14T02:46:34.776Z,99.90
2022-10-14T02:48:07.950Z,99.90
2022-10-14T02:49:40.204Z,99.90
2022-10-14T02:51:12.219Z,99.90
2022-10-14T02:52:44.332Z,99.90
2022-10-14T02:54:16.511Z,99.90
2022-10-14T02:55:54.568Z,99.90
2022-10-14T02:57:26.739Z,99.90
2022-10-14T02:58:58.777Z,99.90
2022-10-14T03:00:30.877Z,99.90
2022-10-14T03:02:03.379Z,99.90
2022-10-14T03:03:35.535Z,99.90
2022-10-14T03:05:07.992Z,99.90
2022-10-14T03:06:40.034Z,99.90
2022-10-14T03:08:12.307Z,99.90
2022-10-14T03:09:44.367Z,99.90
2022-10-14T03:11:16.881Z,99.90
2022-10-14T03:12:48.977Z,99.90
2022-10-14T03:14:21.232Z,99.90
2022-10-14T03:15:53.287Z,99.90
2022-10-14T03:17:25.790Z,99.90
2022-10-14T03:18:58.131Z,99.90
2022-10-14T03:20:30.653Z,99.90
2022-10-14T03:22:02.854Z,99.90
2022-10-14T03:23:35.062Z,99.90
2022-10-14T03:25:07.795Z,99.90
2022-10-14T03:26:40.159Z,99.90
2022-10-14T03:28:13.158Z,99.90
2022-10-14T03:29:45.270Z,99.90
2022-10-14T03:31:17.426Z,99.90
2022-10-14T03:32:49.673Z,99.90
2022-10-14T03:34:21.921Z,99.90
2022-10-14T03:35:54.259Z,99.90
2022-10-14T03:37:26.555Z,99.90
2022-10-14T03:38:58.888Z,99.90
2022-10-14T03:40:31.036Z,99.90
2022-10-14T03:42:03.419Z,99.90
2022-10-14T03:43:35.436Z,99.90
2022-10-14T03:45:15.168Z,99.90
2022-10-14T03:46:47.404Z,99.90
2022-10-14T03:48:19.619Z,99.90
2022-10-14T03:49:51.642Z,99.90
2022-10-14T03:51:24.242Z,99.90
2022-10-14T03:52:56.277Z,99.90
2022-10-14T03:54:28.344Z,99.90
2022-10-14T03:56:00.382Z,99.90
2022-10-14T03:57:32.695Z,99.90
2022-10-14T03:59:04.827Z,99.90
2022-10-14T04:00:36.943Z,99.90
2022-10-14T04:02:09.114Z,99.90
2022-10-14T04:03:41.788Z,99.90
2022-10-14T04:05:14.091Z,99.90
2022-10-14T04:06:46.162Z,99.90
2022-10-14T04:08:18.514Z,99.90
2022-10-14T04:09:50.813Z,99.90
2022-10-14T04:11:22.842Z,99.90
2022-10-14T04:12:55.369Z,99.90
2022-10-14T04:14:27.475Z,99.90
2022-10-14T04:16:10.098Z,99.90
2022-10-14T04:17:42.214Z,99.90
2022-10-14T04:19:14.395Z,99.90
2022-10-14T04:20:46.486Z,99.90
2022-10-14T04:22:19.735Z,99.90
2022-10-14T04:23:52.166Z,99.90
2022-10-14T04:25:24.181Z,99.90
2022-10-14T04:26:56.335Z,99.90
2022-10-14T04:28:28.773Z,99.90
2022-10-14T04:30:01.155Z,99.90
2022-10-14T04:31:33.327Z,99.90
2022-10-14T04:33:05.951Z,99.90
2022-10-14T04:34:38.484Z,99.90
2022-10-14T04:36:10.582Z,99.90
2022-10-14T04:37:42.621Z,99.90
2022-10-14T04:39:15.349Z,99.90
2022-10-14T04:40:47.609Z,99.90
2022-10-14T04:42:19.990Z,99.90
2022-10-14T04:43:52.343Z,99.90
2022-10-14T04:45:25.848Z,99.90
2022-10-14T04:46:58.379Z,99.90
2022-10-14T04:48:30.467Z,99.90
2022-10-14T04:50:02.552Z,99.90
2022-10-14T04:51:34.657Z,99.90
2022-10-14T04:53:11.929Z,99.90
2022-10-14T04:54:45.440Z,99.90
2022-10-14T04:56:17.516Z,99.90
2022-10-14T04:57:49.635Z,99.90
2022-10-14T04:59:21.970Z,99.90
2022-10-14T05:00:55.683Z,99.90
2022-10-14T05:02:29.099Z,99.90
2022-10-14T05:04:01.184Z,99.90
2022-10-14T05:05:33.718Z,99.90
2022-10-14T05:07:05.771Z,99.90
2022-10-14T05:08:37.794Z,99.90
2022-10-14T05:10:10.379Z,99.90
2022-10-14T05:11:42.845Z,99.90
2022-10-14T05:13:15.532Z,99.90
2022-10-14T05:14:47.623Z,99.90
2022-10-14T05:16:19.843Z,99.90
2022-10-14T05:17:52.442Z,99.90
2022-10-14T05:19:25.049Z,99.90
2022-10-14T05:21:00.575Z,99.90
2022-10-14T05:22:32.680Z,99.90
2022-10-14T05:24:05.251Z,99.90
2022-10-14T05:25:37.562Z,99.90
2022-10-14T05:27:09.678Z,99.90
2022-10-14T05:28:42.140Z,99.90
2022-10-14T05:30:14.896Z,99.90
2022-10-14T05:31:47.226Z,99.90
2022-10-14T05:33:19.257Z,99.90
2022-10-14T05:34:51.287Z,99.90
2022-10-14T05:36:23.585Z,99.90
2022-10-14T05:38:00.694Z,99.90
2022-10-14T05:39:35.403Z,99.90
2022-10-14T05:41:07.434Z,99.90
2022-10-14T05:42:39.722Z,99.90
2022-10-14T05:44:12.082Z,99.90
2022-10-14T05:45:44.108Z,99.90
2022-10-14T05:47:16.743Z,99.90
2022-10-14T05:48:49.116Z,99.90
2022-10-14T05:50:21.893Z,99.90
2022-10-14T05:51:53.966Z,99.90
2022-10-14T05:53:26.360Z,99.90
2022-10-14T05:54:58.691Z,99.90
2022-10-14T05:56:30.732Z,99.90
2022-10-14T05:58:02.979Z,99.90
2022-10-14T05:59:35.551Z,99.90
2022-10-14T06:01:10.463Z,99.90
2022-10-14T06:02:42.740Z,99.90
2022-10-14T06:04:19.934Z,99.90
2022-10-14T06:05:52.378Z,99.90
2022-10-14T06:07:24.635Z,99.90
2022-10-14T06:08:57.155Z,99.90
2022-10-14T06:10:29.334Z,99.90
2022-10-14T06:12:01.480Z,99.90
2022-10-14T06:13:35.760Z,99.90
2022-10-14T06:15:08.172Z,99.90
2022-10-14T06:16:40.350Z,99.90
2022-10-14T06:18:12.610Z,99.90
2022-10-14T06:19:44.907Z,99.90
2022-10-14T06:21:16.961Z,99.90
2022-10-14T06:22:49.156Z,99.90
2022-10-14T06:24:21.274Z,99.90
2022-10-14T06:25:53.922Z,99.90
2022-10-14T06:27:25.979Z,99.90
2022-10-14T06:28:58.179Z,99.90
2022-10-14T06:30:30.588Z,99.90
2022-10-14T06:32:04.127Z,99.90
2022-10-14T06:33:36.302Z,99.90
2022-10-14T06:35:09.440Z,99.90
2022-10-14T06:36:41.581Z,99.90
2022-10-14T06:38:14.363Z,99.90
2022-10-14T06:39:46.450Z,99.90
2022-10-14T06:41:18.495Z,99.90
2022-10-14T06:42:50.839Z,99.90
2022-10-14T06:44:23.154Z,99.90
2022-10-14T06:45:58.000Z,99.90
2022-10-14T06:47:30.099Z,99.90
2022-10-14T06:49:02.764Z,99.90
2022-10-14T06:50:35.248Z,99.90
2022-10-14T06:52:07.380Z,99.90
2022-10-14T06:53:39.491Z,99.90
2022-10-14T06:55:12.203Z,99.90
2022-10-14T06:56:44.667Z,99.90
2022-10-14T06:58:16.873Z,99.90
2022-10-14T06:59:48.901Z,99.90
2022-10-14T07:01:21.015Z,99.90
2022-10-14T07:04:40.315Z,99.90
2022-10-14T07:06:12.695Z,99.90
2022-10-14T07:07:45.088Z,99.90
2022-10-14T07:09:17.856Z,99.90
2022-10-14T07:10:49.918Z,99.90
2022-10-14T07:12:22.050Z,99.90
2022-10-14T07:13:55.647Z,99.90
2022-10-14T07:15:31.210Z,99.90
2022-10-14T07:17:08.215Z,99.90
2022-10-14T07:18:40.667Z,99.90
2022-10-14T07:20:13.187Z,99.90
2022-10-14T07:21:46.824Z,99.90
2022-10-14T07:23:19.020Z,99.90
2022-10-14T07:24:51.125Z,99.90
2022-10-14T07:26:23.471Z,99.90
2022-10-14T07:27:55.943Z,99.90
2022-10-14T07:29:28.668Z,99.90
2022-10-14T07:31:06.670Z,99.90
2022-10-14T07:32:38.971Z,99.90
2022-10-14T07:34:11.382Z,99.90
2022-10-14T07:35:43.567Z,99.90
2022-10-14T07:37:15.750Z,99.90
2022-10-14T07:38:48.320Z,99.90
2022-10-14T07:40:20.980Z,99.90
2022-10-14T07:42:03.277Z,99.90
2022-10-14T07:43:36.028Z,99.90
2022-10-14T07:45:09.844Z,99.90
2022-10-14T07:46:44.374Z,99.90
2022-10-14T07:48:23.063Z,99.90
2022-10-14T07:50:05.058Z,99.90
2022-10-14T07:51:38.170Z,99.90
2022-10-14T07:53:10.213Z,99.90
2022-10-14T07:54:42.347Z,99.90
2022-10-14T07:56:14.811Z,99.90
2022-10-14T07:57:47.104Z,99.90
2022-10-14T07:59:20.756Z,99.90
2022-10-14T08:00:53.594Z,99.90
2022-10-14T08:02:25.666Z,99.90
2022-10-14T08:03:58.262Z,99.90
2022-10-14T08:05:38.071Z,99.90
2022-10-14T08:07:10.775Z,99.90
2022-10-14T08:08:44.117Z,99.90
2022-10-14T08:10:16.404Z,99.90
2022-10-14T08:11:48.666Z,99.90
2022-10-14T08:13:20.791Z,99.90
2022-10-14T08:14:55.690Z,99.90
2022-10-14T08:16:30.841Z,99.90
2022-10-14T08:18:03.012Z,99.90
2022-10-14T08:19:35.231Z,99.90
2022-10-14T08:21:07.996Z,99.90
2022-10-14T08:22:40.268Z,99.90
2022-10-14T08:24:12.398Z,99.90
2022-10-14T08:25:46.773Z,99.90
2022-10-14T08:27:19.351Z,99.90
2022-10-14T08:28:52.355Z,99.90
2022-10-14T08:30:25.502Z,99.90
2022-10-14T08:31:57.546Z,99.90
2022-10-14T08:33:29.910Z,99.90
2022-10-14T08:35:02.153Z,99.90
2022-10-14T08:36:34.374Z,99.90
2022-10-14T08:38:06.462Z,99.90
2022-10-14T08:39:38.851Z,99.90
2022-10-14T08:41:15.027Z,99.90
2022-10-14T08:43:08.275Z,99.90
2022-10-14T08:44:51.767Z,99.90
2022-10-14T08:46:30.086Z,99.90
2022-10-14T08:48:11.071Z,99.90
2022-10-14T08:50:09.418Z,99.90
2022-10-14T08:51:45.383Z,99.90
2022-10-14T08:53:22.647Z,99.90
2022-10-14T08:55:01.194Z,99.90
2022-10-14T08:56:36.617Z,99.90
2022-10-14T08:58:15.070Z,99.90
2022-10-14T08:59:47.507Z,99.90
2022-10-14T09:01:24.979Z,99.90
2022-10-14T09:02:59.963Z,99.90
2022-10-14T09:04:36.242Z,99.90
2022-10-14T09:06:26.946Z,99.90
2022-10-14T09:08:00.777Z,99.90
2022-10-14T09:09:43.525Z,99.90
2022-10-14T09:11:21.661Z,99.90
2022-10-14T09:12:58.954Z,99.90
2022-10-14T09:14:37.619Z,99.90
2022-10-14T09:16:23.204Z,99.90
2022-10-14T09:18:35.328Z,99.90
2022-10-14T09:20:18.052Z,99.90
2022-10-14T09:21:53.667Z,99.90
2022-10-14T09:23:27.658Z,99.90
2022-10-14T09:25:01.182Z,99.90
2022-10-14T09:26:40.662Z,99.90
2022-10-14T09:28:14.326Z,99.90
2022-10-14T09:30:09.149Z,99.90
2022-10-14T09:31:41.431Z,99.90
2022-10-14T09:33:19.774Z,99.90
2022-10-14T09:34:52.710Z,99.90
2022-10-14T09:36:24.763Z,99.90
2022-10-14T09:37:57.346Z,99.90
2022-10-14T09:39:30.833Z,98.90
2022-10-14T09:41:02.991Z,99.90
2022-10-14T09:43:04.219Z,99.20
2022-10-14T09:44:36.736Z,98.00
2022-10-14T09:46:11.127Z,98.10
2022-10-14T09:47:50.818Z,98.60
2022-10-14T09:49:39.515Z,99.80
2022-10-14T09:51:23.798Z,99.10
2022-10-14T09:53:01.574Z,97.40
2022-10-14T09:54:34.504Z,97.20
2022-10-14T09:56:10.223Z,97.90
2022-10-14T09:57:42.411Z,98.20
2022-10-14T09:59:25.322Z,97.80
2022-10-14T10:01:02.528Z,98.10
2022-10-14T10:02:46.891Z,98.00
2022-10-14T10:04:36.493Z,96.00
2022-10-14T10:06:13.542Z,96.60
2022-10-14T10:08:18.966Z,95.30
2022-10-14T10:09:57.245Z,94.60
2022-10-14T10:11:38.444Z,94.60
2022-10-14T10:13:40.231Z,95.00
2022-10-14T10:15:21.463Z,94.80
2022-10-14T10:17:09.702Z,93.90
2022-10-14T10:18:43.211Z,94.40
2022-10-14T10:20:16.644Z,94.30
2022-10-14T10:21:48.930Z,93.70
2022-10-14T10:23:25.579Z,93.90
2022-10-14T10:25:03.695Z,93.30
2022-10-14T10:26:35.954Z,93.10
2022-10-14T10:28:20.282Z,92.40
2022-10-14T10:29:55.855Z,91.70
2022-10-14T10:31:43.073Z,92.30
2022-10-14T10:33:27.443Z,92.30
2022-10-14T10:35:20.795Z,91.90
2022-10-14T10:37:08.528Z,92.20
2022-10-14T10:39:03.864Z,92.10
2022-10-14T10:40:55.531Z,91.90
2022-10-14T10:42:42.554Z,92.40
2022-10-14T10:44:40.564Z,91.40
2022-10-14T10:47:07.533Z,91.00
2022-10-14T10:48:51.356Z,91.50
2022-10-14T10:50:48.582Z,92.20
2022-10-14T10:52:56.507Z,91.80
2022-10-14T10:55:10.399Z,92.20
2022-10-14T10:57:24.862Z,92.40
2022-10-14T10:59:30.312Z,91.40
2022-10-14T11:01:44.584Z,92.70
2022-10-14T11:03:36.211Z,92.90
2022-10-14T11:05:33.183Z,93.00
2022-10-14T11:08:04.321Z,92.80
2022-10-14T11:10:29.109Z,93.00
2022-10-14T11:12:23.369Z,93.40
2022-10-14T11:14:46.325Z,93.50
2022-10-14T11:16:58.952Z,92.50
2022-10-14T11:19:09.700Z,92.70
2022-10-14T11:21:25.907Z,91.80
2022-10-14T11:23:20.290Z,91.40
2022-10-14T11:25:22.847Z,91.00
2022-10-14T11:27:27.808Z,92.00
2022-10-14T11:29:52.336Z,91.60
2022-10-14T11:31:39.687Z,91.50
2022-10-14T11:33:37.444Z,92.70
2022-10-14T11:36:02.594Z,93.00
2022-10-14T11:37:58.192Z,93.80
2022-10-14T11:40:00.840Z,94.30
2022-10-14T11:42:20.836Z,94.30
2022-10-14T11:44:05.276Z,94.90
2022-10-14T11:46:09.016Z,94.90
2022-10-14T11:47:46.892Z,94.00
2022-10-14T11:49:44.102Z,94.20
2022-10-14T11:51:38.531Z,93.90
2022-10-14T11:53:22.376Z,94.30
2022-10-14T11:55:09.654Z,94.00
2022-10-14T11:57:16.364Z,93.40
2022-10-14T11:58:52.274Z,94.30
2022-10-14T12:00:31.956Z,94.50
2022-10-14T12:02:19.556Z,94.60
2022-10-14T12:04:06.378Z,94.30
2022-10-14T12:05:52.876Z,94.00
2022-10-14T12:07:39.283Z,93.60
2022-10-14T12:09:39.570Z,93.60
2022-10-14T12:11:50.495Z,93.30
2022-10-14T12:14:03.507Z,92.80
2022-10-14T12:15:42.792Z,92.80
2022-10-14T12:17:36.331Z,92.20
2022-10-14T12:19:13.211Z,92.20
2022-10-14T12:21:08.625Z,90.50
2022-10-14T12:22:41.518Z,91.30
2022-10-14T12:24:19.682Z,91.60
2022-10-14T12:26:20.863Z,92.00
2022-10-14T12:27:55.474Z,92.20
2022-10-14T12:29:41.047Z,92.40
2022-10-14T12:31:39.506Z,91.80
2022-10-14T12:33:22.342Z,92.40
2022-10-14T12:35:01.425Z,93.10
2022-10-14T12:38:12.941Z,93.20
2022-10-14T12:39:45.074Z,93.80
2022-10-14T12:41:36.758Z,93.90
2022-10-14T12:43:26.444Z,93.50
2022-10-14T12:45:03.303Z,93.10
2022-10-14T12:46:49.006Z,93.50
2022-10-14T12:48:37.577Z,93.40
2022-10-14T12:50:15.731Z,93.00
2022-10-14T12:52:26.269Z,92.80
2022-10-14T12:54:16.102Z,92.30
2022-10-14T12:55:56.741Z,92.60
2022-10-14T12:57:37.325Z,92.40
2022-10-14T12:59:32.224Z,92.50
2022-10-14T13:01:23.744Z,92.60
2022-10-14T13:03:03.079Z,92.50
2022-10-14T13:04:36.155Z,93.30
2022-10-14T13:06:36.472Z,93.40
2022-10-14T13:08:24.306Z,93.20
2022-10-14T13:10:28.228Z,93.00
2022-10-14T13:12:00.356Z,92.80
2022-10-14T13:13:39.008Z,92.90
2022-10-14T13:15:36.580Z,92.60
2022-10-14T13:17:45.317Z,92.10
2022-10-14T13:19:41.137Z,91.80
2022-10-14T13:21:39.045Z,91.50
2022-10-14T13:23:31.545Z,91.90
2022-10-14T13:25:17.785Z,91.40
2022-10-14T13:26:55.861Z,91.70
2022-10-14T13:28:52.890Z,91.30
2022-10-14T13:30:37.676Z,91.30
2022-10-14T13:32:49.687Z,91.50
2022-10-14T13:34:43.907Z,91.50
2022-10-14T13:36:22.570Z,91.90
2022-10-14T13:38:06.498Z,92.30
2022-10-14T13:39:38.836Z,92.40
2022-10-14T13:41:29.837Z,92.70
2022-10-14T13:43:34.623Z,92.80
2022-10-14T13:45:13.894Z,93.10
2022-10-14T13:46:50.008Z,93.00
2022-10-14T13:48:40.735Z,92.60
2022-10-14T13:50:15.764Z,92.50
2022-10-14T13:51:57.304Z,92.80
2022-10-14T13:53:29.949Z,93.40
2022-10-14T13:55:17.501Z,93.20
2022-10-14T13:57:31.540Z,93.50
2022-10-14T13:58:51.605Z,93.20
2022-10-14T14:00:42.785Z,93.50
2022-10-14T14:02:29.936Z,93.60
2022-10-14T14:04:03.211Z,94.10
2022-10-14T14:05:36.540Z,94.20
2022-10-14T14:07:47.701Z,94.70
2022-10-14T14:09:23.083Z,94.70
2022-10-14T14:11:17.995Z,95.00
2022-10-14T14:12:51.972Z,95.40
2022-10-14T14:14:37.430Z,95.50
2022-10-14T14:16:24.289Z,95.80
2022-10-14T14:17:56.848Z,95.90
2022-10-14T14:19:38.246Z,96.20
2022-10-14T14:21:13.465Z,96.50
2022-10-14T14:22:46.076Z,96.60
2022-10-14T14:24:25.647Z,96.90
2022-10-14T14:26:18.426Z,96.80
2022-10-14T14:28:02.188Z,96.70
2022-10-14T14:29:35.831Z,96.70
2022-10-14T14:31:42.492Z,96.70
2022-10-14T14:33:31.309Z,96.60
2022-10-14T14:35:12.066Z,96.80
2022-10-14T14:36:55.764Z,96.80
2022-10-14T14:38:38.746Z,97.10
2022-10-14T14:40:25.871Z,97.30
2022-10-14T14:42:01.250Z,97.30
2022-10-14T14:43:38.455Z,97.70
2022-10-14T14:45:25.499Z,97.70
2022-10-14T14:47:03.809Z,97.90
2022-10-14T14:48:49.770Z,98.10
2022-10-14T14:50:42.861Z,98.20
2022-10-14T14:52:15.634Z,98.60
2022-10-14T14:53:56.183Z,99.00
2022-10-14T14:55:38.827Z,99.50
2022-10-14T14:57:20.184Z,99.70
2022-10-14T14:58:58.211Z,99.90
2022-10-14T15:00:30.765Z,99.90
2022-10-14T15:02:15.345Z,99.90
2022-10-14T15:04:11.893Z,99.90
2022-10-14T15:06:01.336Z,99.90
2022-10-14T15:07:35.984Z,99.90
2022-10-14T15:09:14.923Z,99.90
2022-10-14T15:10:50.391Z,99.90
2022-10-14T15:12:25.917Z,99.90
2022-10-14T15:14:00.275Z,99.90
2022-10-14T15:15:34.224Z,99.90
2022-10-14T15:17:27.694Z,99.90
2022-10-14T15:19:37.431Z,99.90
2022-10-14T15:21:19.320Z,99.90
2022-10-14T15:22:52.769Z,99.90
2022-10-14T15:24:24.934Z,99.90
2022-10-14T15:26:00.639Z,99.90
2022-10-14T15:27:35.632Z,99.90
2022-10-14T15:29:08.122Z,99.90
2022-10-14T15:30:40.334Z,99.90
2022-10-14T15:32:15.358Z,99.90
2022-10-14T15:33:49.435Z,99.90
2022-10-14T15:35:22.982Z,99.90
2022-10-14T15:36:55.460Z,99.90
2022-10-14T15:38:28.755Z,99.90
2022-10-14T15:40:14.318Z,99.90
2022-10-14T15:41:47.464Z,99.90
2022-10-14T15:43:26.634Z,99.90
2022-10-14T15:44:58.899Z,99.90
2022-10-14T15:46:49.761Z,99.90
2022-10-14T15:48:25.001Z,99.90
2022-10-14T15:49:57.612Z,99.90
2022-10-14T15:51:31.459Z,99.90
2022-10-14T15:53:04.115Z,99.90
2022-10-14T15:54:36.633Z,99.90
2022-10-14T15:56:10.346Z,99.90
2022-10-14T15:57:42.531Z,99.90
2022-10-14T15:59:16.286Z,99.90
2022-10-14T16:00:48.745Z,99.90
2022-10-14T16:02:35.883Z,99.90
2022-10-14T16:04:22.201Z,99.90
2022-10-14T16:05:54.781Z,99.90
2022-10-14T16:07:27.182Z,99.90
2022-10-14T16:08:59.671Z,99.90
2022-10-14T16:10:34.329Z,99.90
2022-10-14T16:12:14.797Z,99.90
2022-10-14T16:13:47.020Z,99.90
2022-10-14T16:15:49.378Z,99.90
2022-10-14T16:17:22.134Z,99.90
2022-10-14T16:18:54.435Z,99.90
2022-10-14T16:20:35.787Z,99.90
2022-10-14T16:22:09.543Z,99.90
2022-10-14T16:23:43.480Z,99.90
2022-10-14T16:25:44.964Z,99.90
2022-10-14T16:27:17.199Z,99.90
2022-10-14T16:28:49.711Z,99.90
2022-10-14T16:30:21.968Z,99.90
2022-10-14T16:31:55.352Z,99.90
2022-10-14T16:33:27.774Z,99.90
2022-10-14T16:35:00.395Z,99.90
2022-10-14T16:36:32.688Z,99.90
2022-10-14T16:38:04.899Z,99.90
2022-10-14T16:39:38.772Z,99.90
2022-10-14T16:41:12.435Z,99.90
2022-10-14T16:42:44.877Z,99.90
2022-10-14T16:44:27.638Z,99.90
2022-10-14T16:46:03.895Z,99.90
2022-10-14T16:47:36.480Z,99.90
2022-10-14T16:49:09.111Z,99.90
2022-10-14T16:50:41.332Z,99.90
2022-10-14T16:52:15.381Z,99.90
2022-10-14T16:53:49.044Z,99.90
2022-10-14T16:55:23.180Z,99.90
2022-10-14T16:56:56.751Z,99.90
2022-10-14T16:58:28.992Z,99.90
2022-10-14T17:00:01.481Z,99.90
2022-10-14T17:01:33.938Z,99.90
2022-10-14T17:03:06.180Z,99.90
2022-10-14T17:04:39.325Z,99.90
2022-10-14T17:06:12.139Z,99.90
2022-10-14T17:07:44.596Z,99.90
2022-10-14T17:09:18.754Z,99.90
2022-10-14T17:10:50.946Z,99.90
2022-10-14T17:12:23.746Z,99.90
2022-10-14T17:13:58.491Z,99.90
2022-10-14T17:15:30.651Z,99.90
2022-10-14T17:17:02.798Z,99.90
2022-10-14T17:18:36.081Z,99.90
2022-10-14T17:20:09.438Z,99.90
2022-10-14T17:21:42.024Z,99.90
2022-10-14T17:23:14.221Z,99.90
2022-10-14T17:24:50.849Z,99.90
2022-10-14T17:26:23.627Z,99.90
2022-10-14T17:27:55.801Z,99.90
2022-10-14T17:29:29.433Z,99.90
2022-10-14T17:31:01.768Z,99.90
2022-10-14T17:32:34.588Z,99.90
2022-10-14T17:34:06.832Z,99.90
2022-10-14T17:35:39.164Z,99.90
2022-10-14T17:37:11.582Z,99.90
2022-10-14T17:38:44.536Z,99.90
2022-10-14T17:40:16.947Z,99.90
2022-10-14T17:41:49.103Z,99.90
2022-10-14T17:43:21.808Z,99.90
2022-10-14T17:44:54.044Z,99.90
2022-10-14T17:46:29.728Z,99.90
2022-10-14T17:48:01.884Z,99.90
2022-10-14T17:49:34.313Z,99.90
2022-10-14T17:51:06.802Z,99.90
2022-10-14T17:52:39.088Z,99.90
2022-10-14T17:54:13.030Z,99.90
2022-10-14T17:55:45.766Z,99.90
2022-10-14T17:57:18.359Z,99.90
2022-10-14T17:58:57.008Z,99.90
2022-10-14T18:00:29.651Z,99.90
2022-10-14T18:02:03.449Z,99.90
2022-10-14T18:03:40.980Z,99.90
2022-10-14T18:05:13.762Z,99.90
2022-10-14T18:06:46.955Z,99.90
2022-10-14T18:08:19.434Z,99.90
2022-10-14T18:09:51.665Z,99.90
2022-10-14T18:11:25.508Z,99.90
2022-10-14T18:12:58.074Z,99.90
2022-10-14T18:14:30.881Z,99.90
2022-10-14T18:16:14.292Z,99.90
2022-10-14T18:17:46.740Z,99.90
2022-10-14T18:19:19.601Z,99.90
2022-10-14T18:20:57.021Z,99.90
2022-10-14T18:22:29.774Z,99.90
2022-10-14T18:24:27.671Z,99.90
2022-10-14T18:26:08.261Z,99.90
2022-10-14T18:27:43.844Z,99.90
2022-10-14T18:29:16.074Z,99.90
2022-10-14T18:30:48.284Z,99.90
2022-10-14T18:32:20.854Z,99.90
2022-10-14T18:33:55.788Z,99.90
2022-10-14T18:35:27.997Z,99.90
2022-10-14T18:37:00.356Z,99.90
2022-10-14T18:38:34.220Z,99.90
2022-10-14T18:40:07.183Z,99.90
2022-10-14T18:41:39.703Z,99.90
2022-10-14T18:43:11.854Z,99.90
2022-10-14T18:44:44.223Z,99.90
2022-10-14T18:46:20.888Z,99.90
2022-10-14T18:47:54.431Z,99.90
2022-10-14T18:49:26.908Z,99.90
2022-10-14T18:51:01.052Z,99.90
2022-10-14T18:52:33.809Z,99.90
2022-10-14T18:54:15.452Z,99.90
2022-10-14T18:55:47.629Z,99.90
2022-10-14T18:57:21.111Z,99.90
2022-10-14T18:59:07.085Z,99.90
2022-10-14T19:00:39.497Z,99.90
2022-10-14T19:02:14.551Z,99.90
2022-10-14T19:03:47.416Z,99.90
2022-10-14T19:05:19.997Z,99.90
2022-10-14T19:06:52.522Z,99.90
2022-10-14T19:08:25.577Z,99.90
2022-10-14T19:09:58.094Z,99.90
2022-10-14T19:11:32.846Z,99.90
2022-10-14T19:13:05.808Z,99.90
2022-10-14T19:14:38.238Z,99.90
2022-10-14T19:16:18.347Z,99.90
2022-10-14T19:17:54.628Z,99.90
2022-10-14T19:19:27.072Z,99.90
2022-10-14T19:21:09.636Z,99.90
2022-10-14T19:22:44.833Z,99.90
2022-10-14T19:24:18.327Z,99.90
2022-10-14T19:25:50.539Z,99.90
2022-10-14T19:27:23.164Z,99.90
2022-10-14T19:28:58.315Z,99.90
2022-10-14T19:30:30.579Z,99.90
2022-10-14T19:32:03.011Z,99.90
2022-10-14T19:33:41.692Z,99.90
2022-10-14T19:35:14.098Z,99.90
2022-10-14T19:36:46.404Z,99.90
2022-10-14T19:38:19.023Z,99.90
2022-10-14T19:39:51.157Z,99.90
2022-10-14T19:41:29.805Z,99.90
2022-10-14T19:43:02.004Z,99.90
2022-10-14T19:44:34.268Z,99.90
2022-10-14T19:46:11.763Z,99.90
2022-10-14T19:47:44.113Z,99.90
2022-10-14T19:49:16.715Z,99.90
2022-10-14T19:50:50.460Z,99.90
2022-10-14T19:52:22.592Z,99.90
2022-10-14T19:53:56.660Z,99.90
2022-10-14T19:55:29.274Z,99.90
2022-10-14T19:57:01.398Z,99.90
2022-10-14T19:58:34.122Z,99.90
2022-10-14T20:00:07.500Z,99.90
2022-10-14T20:01:39.812Z,99.90
2022-10-14T20:03:13.343Z,99.90
2022-10-14T20:04:45.536Z,99.90
2022-10-14T20:06:19.209Z,99.90
2022-10-14T20:07:53.858Z,99.90
2022-10-14T20:09:26.001Z,99.90
2022-10-14T20:11:05.920Z,99.90
2022-10-14T20:12:38.807Z,99.90
2022-10-14T20:14:10.955Z,99.90
2022-10-14T20:15:43.170Z,99.90
2022-10-14T20:17:15.535Z,99.90
2022-10-14T20:18:48.258Z,99.90
2022-10-14T20:20:20.407Z,99.90
2022-10-14T20:21:52.859Z,99.90
2022-10-14T20:23:25.793Z,99.90
2022-10-14T20:24:58.371Z,99.90
2022-10-14T20:26:30.873Z,99.90
2022-10-14T20:28:03.324Z,99.90
2022-10-14T20:29:36.772Z,99.90
2022-10-14T20:31:13.179Z,99.90
2022-10-14T20:32:45.615Z,99.90
2022-10-14T20:34:18.284Z,99.90
2022-10-14T20:36:20.319Z,99.90
2022-10-14T20:37:53.169Z,99.90
2022-10-14T20:39:25.505Z,99.90
2022-10-14T20:41:12.789Z,99.90
2022-10-14T20:42:45.130Z,99.90
2022-10-14T20:44:24.764Z,99.90
2022-10-14T20:45:57.363Z,99.90
2022-10-14T20:47:29.605Z,99.90
2022-10-14T20:49:01.798Z,99.90
2022-10-14T20:50:34.300Z,99.90
2022-10-14T20:52:09.538Z,99.90
2022-10-14T20:53:42.167Z,99.90
2022-10-14T20:55:14.572Z,99.90
2022-10-14T20:56:49.169Z,99.90
2022-10-14T20:58:21.424Z,99.90
2022-10-14T20:59:53.553Z,99.90
2022-10-14T21:01:29.383Z,99.90
2022-10-14T21:03:01.924Z,99.90
2022-10-14T21:04:34.097Z,99.90
2022-10-14T21:06:11.876Z,99.90
2022-10-14T21:07:44.110Z,99.90